Time;durP1;ratioP1;P1;durP2;ratioP2;P2;SDS_P1;SDS_P2;PMS_P1;PMS_P2;Temp;Humidity;BMP_temperature;BMP_pressure;BME280_temperature;BME280_humidity;BME280_pressure;Samples;Min_cycle;Max_cycle;Signal;HPM_P1;HPM_P2
2023/10/17 00:01:54;;;;;;;;;;;;;;;;;;2079187;28;19905;-80
2023/10/17 00:03:14;;;;;;;;;;;;;;;;;;2073864;28;19992;-79
2023/10/17 00:04:33;;;;;;;;;;;;;;;;;;2078487;28;20286;-80
2023/10/17 00:05:54;;;;;;;;;;;;;;;;;;2082021;28;19952;-80
2023/10/17 00:07:14;;;;;;;;;;;;;;;;;;2076205;28;20370;-80
2023/10/17 00:08:32;;;;;;;;;;;;;;;;;;2070386;28;19992;-80
2023/10/17 00:09:53;;;;;;;;;;;;;;;;;;2078253;28;19969;-81
2023/10/17 00:11:15;;;;;;;;;;;;;;;;;;2075555;28;20295;-80
2023/10/17 00:12:40;;;;;;;;;;;;;;;;;;2070278;28;19913;-80
2023/10/17 00:14:11;;;;;;;;;;;;;;;;;;2080473;28;20004;-80
2023/10/17 00:15:35;;;;;;;;;;;;;;;;;;2081228;28;19913;-80
2023/10/17 00:16:57;;;;;;;;;;;;;;;;;;2072643;28;19909;-80
2023/10/17 00:18:18;;;;;;;;;;;;;;;;;;2073765;28;19905;-80
2023/10/17 00:19:37;;;;;;;;;;;;;;;;;;2076273;28;19909;-80
2023/10/17 00:21:09;;;;;;;;;;;;;;;;;;2070872;28;19909;-80
2023/10/17 00:22:28;;;;;;;;;;;;;;;;;;2078920;28;20428;-80
2023/10/17 00:23:47;;;;;;;;;;;;;;;;;;2080291;28;19953;-80
2023/10/17 00:25:09;;;;;;;;;;;;;;;;;;2075450;28;19905;-80
2023/10/17 00:26:30;;;;;;;;;;;;;;;;;;2078616;28;19909;-80
2023/10/17 00:27:49;;;;;;;;;;;;;;;;;;2074194;28;20390;-80
2023/10/17 00:29:09;;;;;;;;;;;;;;;;;;2079598;28;19904;-80
2023/10/17 00:30:30;;;;;;;;;;;;;;;;;;2074835;28;20270;-80
2023/10/17 00:31:48;;;;;;;;;;;;;;;;;;2076374;28;19957;-81
2023/10/17 00:33:10;;;;;;;;;;;;;;;;;;2075816;28;20334;-81
2023/10/17 00:34:29;;;;;;;;;;;;;;;;;;2073617;28;20000;-80
2023/10/17 00:35:48;;;;;;;;;;;;;;;;;;2074045;28;20454;-82
2023/10/17 00:37:11;;;;;;;;;;;;;;;;;;2074431;28;20354;-80
2023/10/17 00:38:35;;;;;;;;;;;;;;;;;;2061557;28;19918;-81
2023/10/17 00:39:56;;;;;;;;;;;;;;;;;;2072133;28;20337;-81
2023/10/17 00:42:59;;;;;;;;;;;;;;;;;;2071458;28;20277;-81
2023/10/17 00:44:30;;;;;;;;;;;;;;;;;;2077687;28;19914;-80
2023/10/17 00:45:49;;;;;;;;;;;;;;;;;;2076253;28;19905;-80
2023/10/17 00:47:08;;;;;;;;;;;;;;;;;;2080096;28;19909;-80
2023/10/17 00:48:26;;;;;;;;;;;;;;;;;;2083746;28;19909;-80
2023/10/17 00:49:45;;;;;;;;;;;;;;;;;;2080246;28;20309;-81
2023/10/17 00:51:08;;;;;;;;;;;;;;;;;;2081688;28;19909;-80
2023/10/17 00:52:29;;;;;;;;;;;;;;;;;;2076691;28;19921;-80
2023/10/17 00:53:48;;;;;;;;;;;;;;;;;;2077307;28;19917;-80
2023/10/17 00:55:10;;;;;;;;;;;;;;;;;;2077954;28;19912;-79
2023/10/17 00:56:29;;;;;;;;;;;;;;;;;;2074515;28;20004;-80
2023/10/17 00:57:49;;;;;;;;;;;;;;;;;;2080946;28;19912;-80
2023/10/17 00:59:08;;;;;;;;;;;;;;;;;;2080278;28;19909;-80
2023/10/17 01:00:36;;;;;;;;;;;;;;;;;;2071514;28;20382;-80
2023/10/17 01:01:56;;;;;;;;;;;;;;;;;;2079537;28;19913;-80
2023/10/17 01:03:16;;;;;;;;;;;;;;;;;;2073492;28;19917;-81
2023/10/17 01:04:40;;;;;;;;;;;;;;;;;;2082214;28;19905;-81
2023/10/17 01:07:50;;;;;;;;;;;;;;;;;;2068225;28;19906;-81
2023/10/17 01:09:18;;;;;;;;;;;;;;;;;;2078003;28;20534;-80
2023/10/17 01:10:38;;;;;;;;;;;;;;;;;;2074598;28;19926;-80
2023/10/17 01:11:57;;;;;;;;;;;;;;;;;;2076003;28;19917;-80
2023/10/17 01:13:16;;;;;;;;;;;;;;;;;;2077817;28;19908;-82
2023/10/17 01:14:35;;;;;;;;;;;;;;;;;;2081716;28;19909;-80
2023/10/17 01:15:57;;;;;;;;;;;;;;;;;;2075815;28;19982;-80
2023/10/17 01:17:20;;;;;;;;;;;;;;;;;;2075235;28;19917;-80
2023/10/17 01:18:39;;;;;;;;;;;;;;;;;;2079631;28;19905;-80
2023/10/17 01:20:02;;;;;;;;;;;;;;;;;;2074231;28;20005;-80
2023/10/17 01:21:21;;;;;;;;;;;;;;;;;;2079506;28;19913;-81
2023/10/17 01:22:42;;;;;;;;;;;;;;;;;;2074848;28;19909;-81
2023/10/17 01:24:02;;;;;;;;;;;;;;;;;;2072118;28;19929;-80
2023/10/17 01:25:34;;;;;;;;;;;;;;;;;;2078553;28;19909;-80
2023/10/17 01:26:53;;;;;;;;;;;;;;;;;;2081656;28;19905;-80
2023/10/17 01:28:12;;;;;;;;;;;;;;;;;;2074726;28;19909;-82
2023/10/17 01:29:30;;;;;;;;;;;;;;;;;;2078411;28;19991;-79
2023/10/17 01:30:55;;;;;;;;;;;;;;;;;;2074930;28;19917;-79
2023/10/17 01:32:15;;;;;;;;;;;;;;;;;;2074439;28;19909;-79
2023/10/17 01:33:34;;;;;;;;;;;;;;;;;;2079476;28;20313;-80
2023/10/17 01:34:53;;;;;;;;;;;;;;;;;;2076989;28;19913;-79
2023/10/17 01:36:16;;;;;;;;;;;;;;;;;;2081647;28;19909;-79
2023/10/17 01:37:36;;;;;;;;;;;;;;;;;;2079088;28;19909;-80
2023/10/17 01:38:55;;;;;;;;;;;;;;;;;;2085283;28;19902;-81
2023/10/17 01:40:22;;;;;;;;;;;;;;;;;;2090830;28;20380;-80
2023/10/17 01:41:43;;;;;;;;;;;;;;;;;;2083669;28;19969;-81
2023/10/17 01:43:02;;;;;;;;;;;;;;;;;;2090509;28;19909;-81
2023/10/17 01:44:21;;;;;;;;;;;;;;;;;;2085026;28;19905;-81
2023/10/17 01:45:42;;;;;;;;;;;;;;;;;;2079557;28;19918;-81
2023/10/17 01:47:01;;;;;;;;;;;;;;;;;;2079555;28;19917;-80
2023/10/17 01:48:21;;;;;;;;;;;;;;;;;;2082614;28;20003;-80
2023/10/17 01:49:40;;;;;;;;;;;;;;;;;;2077799;28;20282;-80
2023/10/17 01:50:58;;;;;;;;;;;;;;;;;;2078209;28;19988;-80
2023/10/17 01:52:17;;;;;;;;;;;;;;;;;;2079368;28;19912;-80
2023/10/17 01:53:38;;;;;;;;;;;;;;;;;;2077587;28;19913;-80
2023/10/17 01:54:59;;;;;;;;;;;;;;;;;;2076533;28;20016;-80
2023/10/17 01:56:20;;;;;;;;;;;;;;;;;;2077109;28;19948;-80
2023/10/17 01:57:44;;;;;;;;;;;;;;;;;;2074153;28;19909;-80
2023/10/17 01:59:13;;;;;;;;;;;;;;;;;;2073558;28;19909;-79
2023/10/17 02:02:03;;;;;;;;;;;;;;;;;;2078673;28;19905;-80
2023/10/17 02:03:23;;;;;;;;;;;;;;;;;;2076901;28;19913;-80
2023/10/17 02:04:42;;;;;;;;;;;;;;;;;;2077257;28;19910;-80
2023/10/17 02:06:01;;;;;;;;;;;;;;;;;;2079667;28;19917;-79
2023/10/17 02:07:20;;;;;;;;;;;;;;;;;;2074546;28;19913;-79
2023/10/17 02:08:39;;;;;;;;;;;;;;;;;;2073569;28;19909;-81
2023/10/17 02:10:00;;;;;;;;;;;;;;;;;;2075193;28;19913;-80
2023/10/17 02:11:33;;;;;;;;;;;;;;;;;;2082382;28;20353;-79
2023/10/17 02:12:52;;;;;;;;;;;;;;;;;;2067409;28;19918;-80
2023/10/17 02:14:10;;;;;;;;;;;;;;;;;;2067438;28;20544;-80
2023/10/17 02:15:30;;;;;;;;;;;;;;;;;;2073451;28;20035;-80
2023/10/17 02:16:49;;;;;;;;;;;;;;;;;;2071004;28;19913;-80
2023/10/17 02:18:15;;;;;;;;;;;;;;;;;;2076324;28;19925;-80
2023/10/17 02:19:38;;;;;;;;;;;;;;;;;;2071489;28;19913;-81
2023/10/17 02:21:04;;;;;;;;;;;;;;;;;;2076298;28;20103;-80
2023/10/17 02:22:25;;;;;;;;;;;;;;;;;;2073469;28;20160;-80
2023/10/17 02:23:50;;;;;;;;;;;;;;;;;;2076903;28;19913;-80
2023/10/17 02:25:14;;;;;;;;;;;;;;;;;;2079794;28;19904;-80
2023/10/17 02:26:51;;;;;;;;;;;;;;;;;;2077054;28;20330;-80
2023/10/17 02:28:10;;;;;;;;;;;;;;;;;;2071671;28;20020;-80
2023/10/17 02:29:29;;;;;;;;;;;;;;;;;;2077806;28;19909;-79
2023/10/17 02:30:48;;;;;;;;;;;;;;;;;;2079807;28;19905;-81
2023/10/17 02:32:12;;;;;;;;;;;;;;;;;;2075158;28;19917;-80
2023/10/17 02:33:30;;;;;;;;;;;;;;;;;;2075650;28;20428;-79
2023/10/17 02:34:49;;;;;;;;;;;;;;;;;;2077879;28;20350;-79
2023/10/17 02:36:12;;;;;;;;;;;;;;;;;;2072303;28;20004;-80
2023/10/17 02:37:31;;;;;;;;;;;;;;;;;;2076401;28;19913;-79
2023/10/17 02:38:50;;;;;;;;;;;;;;;;;;2079287;28;19912;-79
2023/10/17 02:40:17;;;;;;;;;;;;;;;;;;2079673;28;19913;-79
2023/10/17 02:41:37;;;;;;;;;;;;;;;;;;2080529;28;20293;-79
2023/10/17 02:42:56;;;;;;;;;;;;;;;;;;2078519;28;19948;-79
2023/10/17 02:44:19;;;;;;;;;;;;;;;;;;2081167;28;19905;-79
2023/10/17 02:45:41;;;;;;;;;;;;;;;;;;2076389;28;21004;-80
2023/10/17 02:47:01;;;;;;;;;;;;;;;;;;2077709;28;19913;-79
2023/10/17 02:48:23;;;;;;;;;;;;;;;;;;2080300;28;19999;-79
2023/10/17 02:49:43;;;;;;;;;;;;;;;;;;2080384;28;19905;-79
2023/10/17 02:51:03;;;;;;;;;;;;;;;;;;2081492;28;19917;-79
2023/10/17 02:52:25;;;;;;;;;;;;;;;;;;2082384;28;19909;-78
2023/10/17 02:53:44;;;;;;;;;;;;;;;;;;2079666;28;19909;-80
2023/10/17 02:55:06;;;;;;;;;;;;;;;;;;2072463;28;19947;-81
2023/10/17 02:56:24;;;;;;;;;;;;;;;;;;2078693;28;19927;-80
2023/10/17 02:57:43;;;;;;;;;;;;;;;;;;2075264;28;20369;-80
2023/10/17 02:59:17;;;;;;;;;;;;;;;;;;2071482;28;19913;-80
2023/10/17 03:00:36;;;;;;;;;;;;;;;;;;2079767;28;19904;-80
2023/10/17 03:01:55;;;;;;;;;;;;;;;;;;2077055;28;19948;-80
2023/10/17 03:03:14;;;;;;;;;;;;;;;;;;2076472;28;19913;-80
2023/10/17 03:04:33;;;;;;;;;;;;;;;;;;2076126;28;19909;-80
2023/10/17 03:05:53;;;;;;;;;;;;;;;;;;2074537;28;19956;-80
2023/10/17 03:07:12;;;;;;;;;;;;;;;;;;2075939;28;19914;-80
2023/10/17 03:08:36;;;;;;;;;;;;;;;;;;2073339;28;19988;-80
2023/10/17 03:09:57;;;;;;;;;;;;;;;;;;2077506;28;20321;-80
2023/10/17 03:11:17;;;;;;;;;;;;;;;;;;2079996;28;19904;-80
2023/10/17 03:12:53;;;;;;;;;;;;;;;;;;2072776;28;19912;-79
2023/10/17 03:14:22;;;;;;;;;;;;;;;;;;2073969;28;20356;-79
2023/10/17 03:15:48;;;;;;;;;;;;;;;;;;2079847;28;20004;-79
2023/10/17 03:17:07;;;;;;;;;;;;;;;;;;2073641;28;19905;-79
2023/10/17 03:18:26;;;;;;;;;;;;;;;;;;2073277;28;19905;-79
2023/10/17 03:19:44;;;;;;;;;;;;;;;;;;2078519;28;20297;-79
2023/10/17 03:21:08;;;;;;;;;;;;;;;;;;2081683;28;19904;-80
2023/10/17 03:22:27;;;;;;;;;;;;;;;;;;2073388;28;19953;-79
2023/10/17 03:23:49;;;;;;;;;;;;;;;;;;2072568;28;19905;-79
2023/10/17 03:25:20;;;;;;;;;;;;;;;;;;2077500;28;19920;-79
2023/10/17 03:26:39;;;;;;;;;;;;;;;;;;2076585;28;19905;-78
2023/10/17 03:28:00;;;;;;;;;;;;;;;;;;2074313;28;19909;-78
2023/10/17 03:29:19;;;;;;;;;;;;;;;;;;2069253;28;20338;-80
2023/10/17 03:30:38;;;;;;;;;;;;;;;;;;2071293;28;19908;-79
2023/10/17 03:32:03;;;;;;;;;;;;;;;;;;2077302;28;20294;-78
2023/10/17 03:33:32;;;;;;;;;;;;;;;;;;2075760;28;19997;-79
2023/10/17 03:34:56;;;;;;;;;;;;;;;;;;2073794;28;19912;-78
2023/10/17 03:37:54;;;;;;;;;;;;;;;;;;2080466;28;20333;-80
2023/10/17 03:39:26;;;;;;;;;;;;;;;;;;2080883;28;19909;-78
2023/10/17 03:40:53;;;;;;;;;;;;;;;;;;2074552;28;19909;-78
2023/10/17 03:42:22;;;;;;;;;;;;;;;;;;2078218;28;19909;-78
2023/10/17 03:43:45;;;;;;;;;;;;;;;;;;2073911;28;19905;-79
2023/10/17 03:45:13;;;;;;;;;;;;;;;;;;2072561;28;19905;-78
2023/10/17 03:46:35;;;;;;;;;;;;;;;;;;2077935;28;19956;-79
2023/10/17 03:47:53;;;;;;;;;;;;;;;;;;2080400;28;19904;-79
2023/10/17 03:49:15;;;;;;;;;;;;;;;;;;2080930;28;19948;-79
2023/10/17 03:50:43;;;;;;;;;;;;;;;;;;2075090;28;19909;-78
2023/10/17 03:52:03;;;;;;;;;;;;;;;;;;2073033;28;19925;-80
2023/10/17 03:53:28;;;;;;;;;;;;;;;;;;2079310;28;19913;-78
2023/10/17 03:54:47;;;;;;;;;;;;;;;;;;2074946;28;19908;-78
2023/10/17 03:56:09;;;;;;;;;;;;;;;;;;2078135;28;19976;-78
2023/10/17 03:57:28;;;;;;;;;;;;;;;;;;2080420;28;19909;-80
2023/10/17 03:58:59;;;;;;;;;;;;;;;;;;2075043;28;19927;-78
2023/10/17 04:01:06;;;;;;;;;;;;;;;;;;2074297;28;20046;-78
2023/10/17 04:01:58;;;;;;;;;;;;;;;;;;2078103;28;19917;-79
2023/10/17 04:03:21;;;;;;;;;;;;;;;;;;2075478;28;19910;-79
2023/10/17 04:04:49;;;;;;;;;;;;;;;;;;2078238;28;19909;-79
2023/10/17 04:07:29;;;;;;;;;;;;;;;;;;2079703;28;20007;-78
2023/10/17 04:09:15;;;;;;;;;;;;;;;;;;2072995;28;19906;-78
2023/10/17 04:10:47;;;;;;;;;;;;;;;;;;2074081;28;19909;-78
2023/10/17 04:12:08;;;;;;;;;;;;;;;;;;2077469;28;19995;-79
2023/10/17 04:13:37;;;;;;;;;;;;;;;;;;2077581;28;20350;-78
2023/10/17 04:14:59;;;;;;;;;;;;;;;;;;2076653;28;19941;-78
2023/10/17 04:16:27;;;;;;;;;;;;;;;;;;2070410;28;21026;-79
2023/10/17 04:17:46;;;;;;;;;;;;;;;;;;2082841;28;20302;-79
2023/10/17 04:19:07;;;;;;;;;;;;;;;;;;2083288;28;20585;-78
2023/10/17 04:20:30;;;;;;;;;;;;;;;;;;2070803;28;20154;-79
2023/10/17 04:22:01;;;;;;;;;;;;;;;;;;2070817;28;19921;-80
2023/10/17 04:23:26;;;;;;;;;;;;;;;;;;2076018;28;20386;-79
2023/10/17 04:24:49;;;;;;;;;;;;;;;;;;2072419;28;19905;-80
2023/10/17 04:26:11;;;;;;;;;;;;;;;;;;2073811;28;20083;-80
2023/10/17 04:27:33;;;;;;;;;;;;;;;;;;2079174;28;20406;-80
2023/10/17 04:28:52;;;;;;;;;;;;;;;;;;2079266;28;19953;-79
2023/10/17 04:30:17;;;;;;;;;;;;;;;;;;2081150;28;19912;-79
2023/10/17 04:31:36;;;;;;;;;;;;;;;;;;2076155;28;20290;-79
2023/10/17 04:33:05;;;;;;;;;;;;;;;;;;2077112;28;19913;-79
2023/10/17 04:34:26;;;;;;;;;;;;;;;;;;2076308;28;19909;-80
2023/10/17 04:35:55;;;;;;;;;;;;;;;;;;2081032;28;20350;-84
2023/10/17 04:37:17;;;;;;;;;;;;;;;;;;2076269;28;20448;-83
2023/10/17 04:38:36;;;;;;;;;;;;;;;;;;2071156;28;19936;-84
2023/10/17 04:40:27;;;;;;;;;;;;;;;;;;2071240;28;20364;-82
2023/10/17 04:41:48;;;;;;;;;;;;;;;;;;2082564;28;20278;-83
2023/10/17 04:44:36;;;;;;;;;;;;;;;;;;2081130;28;20390;-82
2023/10/17 04:45:55;;;;;;;;;;;;;;;;;;2074331;28;21274;-83
2023/10/17 04:48:46;;;;;;;;;;;;;;;;;;2077731;28;19917;-82
2023/10/17 04:50:11;;;;;;;;;;;;;;;;;;2074790;28;19949;-84
2023/10/17 04:51:38;;;;;;;;;;;;;;;;;;2070066;28;19908;-86
2023/10/17 04:52:57;;;;;;;;;;;;;;;;;;2073704;28;19905;-80
2023/10/17 04:54:22;;;;;;;;;;;;;;;;;;2080207;28;20342;-80
2023/10/17 04:55:59;;;;;;;;;;;;;;;;;;2075423;28;20423;-77
2023/10/17 04:57:19;;;;;;;;;;;;;;;;;;2082065;28;19917;-78
2023/10/17 04:58:42;;;;;;;;;;;;;;;;;;2080681;28;19909;-79
2023/10/17 05:00:10;;;;;;;;;;;;;;;;;;2077700;28;19905;-79
2023/10/17 05:01:36;;;;;;;;;;;;;;;;;;2075891;28;19908;-80
2023/10/17 05:03:55;;;;;;;;;;;;;;;;;;2070692;28;19913;-79
2023/10/17 06:16:49;;;;;;;;;;;;;;;;;;2080453;28;19913;-80
2023/10/17 06:17:27;;;;;;;;;;;;;;;;;;2081319;28;20278;-79
2023/10/17 06:18:52;;;;;;;;;;;;;;;;;;2081772;28;19905;-80
2023/10/17 06:20:12;;;;;;;;;;;;;;;;;;2075565;28;19905;-79
2023/10/17 06:21:38;;;;;;;;;;;;;;;;;;2074610;28;20352;-79
2023/10/17 06:26:05;;;;;;;;;;;;;;;;;;2081976;28;19905;-79
2023/10/17 06:30:05;;;;;;;;;;;;;;;;;;2079703;28;19909;-79
2023/10/17 06:30:45;;;;;;;;;;;;;;;;;;2081007;28;19928;-79
2023/10/17 06:32:16;;;;;;;;;;;;;;;;;;2081299;28;19921;-79
2023/10/17 06:33:36;;;;;;;;;;;;;;;;;;2080593;28;20282;-79
2023/10/17 06:35:20;;;;;;;;;;;;;;;;;;2076209;28;19913;-79
2023/10/17 06:36:39;;;;;;;;;;;;;;;;;;2078749;28;20016;-79
2023/10/17 06:37:58;;;;;;;;;;;;;;;;;;2076820;28;19909;-79
2023/10/17 06:39:18;;;;;;;;;;;;;;;;;;2070973;28;20362;-79
2023/10/17 06:40:45;;;;;;;;;;;;;;;;;;2077156;28;19913;-80
2023/10/17 06:42:18;;;;;;;;;;;;;;;;;;2081281;28;19905;-81
2023/10/17 06:43:38;;;;;;;;;;;;;;;;;;2077224;28;19913;-80
2023/10/17 06:45:11;;;;;;;;;;;;;;;;;;2072537;28;20457;-80
2023/10/17 06:46:30;;;;;;;;;;;;;;;;;;2079627;28;19905;-80
2023/10/17 06:47:49;;;;;;;;;;;;;;;;;;2076405;28;19909;-81
2023/10/17 06:49:08;;;;;;;;;;;;;;;;;;2079503;28;19942;-79
2023/10/17 06:53:34;;;;;;;;;;;;;;;;;;2081034;28;19905;-80
2023/10/17 06:54:53;;;;;;;;;;;;;;;;;;2075706;28;20398;-81
2023/10/17 06:56:13;;;;;;;;;;;;;;;;;;2074856;28;19904;-80
2023/10/17 06:57:36;;;;;;;;;;;;;;;;;;2076995;28;19912;-80
2023/10/17 06:59:04;;;;;;;;;;;;;;;;;;2072967;28;19905;-82
2023/10/17 07:00:42;;;;;;;;;;;;;;;;;;2080228;28;20425;-82
2023/10/17 07:02:16;;;;;;;;;;;;;;;;;;2076232;28;20330;-81
2023/10/17 07:03:36;;;;;;;;;;;;;;;;;;2070552;28;19995;-80
2023/10/17 07:04:55;;;;;;;;;;;;;;;;;;2072413;28;20409;-78
2023/10/17 07:06:14;;;;;;;;;;;;;;;;;;2068510;28;19920;-82
2023/10/17 07:07:40;;;;;;;;;;;;;;;;;;2077719;28;20368;-81
2023/10/17 07:09:04;;;;;;;;;;;;;;;;;;2074981;28;19996;-79
2023/10/17 07:11:47;;;;;;;;;;;;;;;;;;2081543;28;19905;-80
2023/10/17 07:13:06;;;;;;;;;;;;;;;;;;2071062;28;20355;-79
2023/10/17 07:14:25;;;;;;;;;;;;;;;;;;2078208;28;19906;-79
2023/10/17 07:15:44;;;;;;;;;;;;;;;;;;2072885;28;20282;-79
2023/10/17 07:17:17;;;;;;;;;;;;;;;;;;2070714;28;19913;-79
2023/10/17 07:18:51;;;;;;;;;;;;;;;;;;2075173;28;19905;-78
2023/10/17 07:20:13;;;;;;;;;;;;;;;;;;2073952;28;19905;-79
2023/10/17 07:21:43;;;;;;;;;;;;;;;;;;2078617;28;19913;-78
2023/10/17 07:23:13;;;;;;;;;;;;;;;;;;2074087;28;19905;-79
2023/10/17 07:24:43;;;;;;;;;;;;;;;;;;2081071;28;19972;-79
2023/10/17 07:26:02;;;;;;;;;;;;;;;;;;2074372;28;20297;-78
2023/10/17 07:27:27;;;;;;;;;;;;;;;;;;2079284;28;20031;-79
2023/10/17 07:28:49;;;;;;;;;;;;;;;;;;2081179;28;19909;-79
2023/10/17 07:30:27;;;;;;;;;;;;;;;;;;2074615;28;19909;-79
2023/10/17 07:31:49;;;;;;;;;;;;;;;;;;2074731;28;20330;-79
2023/10/17 07:33:08;;;;;;;;;;;;;;;;;;2070642;28;19913;-79
2023/10/17 07:34:33;;;;;;;;;;;;;;;;;;2072631;28;20354;-79
2023/10/17 07:35:56;;;;;;;;;;;;;;;;;;2072867;28;19906;-79
2023/10/17 07:38:43;;;;;;;;;;;;;;;;;;2082230;28;19909;-79
2023/10/17 07:41:36;;;;;;;;;;;;;;;;;;2078935;28;19954;-79
2023/10/17 07:42:55;;;;;;;;;;;;;;;;;;2079956;28;20265;-79
2023/10/17 07:44:21;;;;;;;;;;;;;;;;;;2080788;28;20362;-79
2023/10/17 07:45:40;;;;;;;;;;;;;;;;;;2079441;28;19909;-79
2023/10/17 07:47:09;;;;;;;;;;;;;;;;;;2075315;28;19916;-79
2023/10/17 07:48:28;;;;;;;;;;;;;;;;;;2079773;28;19909;-80
2023/10/17 07:49:50;;;;;;;;;;;;;;;;;;2080507;28;19941;-79
2023/10/17 07:51:09;;;;;;;;;;;;;;;;;;2079846;28;20747;-79
2023/10/17 07:52:38;;;;;;;;;;;;;;;;;;2074882;28;19913;-79
2023/10/17 07:53:58;;;;;;;;;;;;;;;;;;2076201;28;19932;-79
2023/10/17 07:55:17;;;;;;;;;;;;;;;;;;2077912;28;19940;-80
2023/10/17 07:56:36;;;;;;;;;;;;;;;;;;2080758;28;20265;-80
2023/10/17 07:58:06;;;;;;;;;;;;;;;;;;2081530;28;20007;-80
2023/10/17 07:59:34;;;;;;;;;;;;;;;;;;2073918;28;19905;-80
2023/10/17 08:00:53;;;;;;;;;;;;;;;;;;2071299;28;19904;-81
2023/10/17 08:02:19;;;;;;;;;;;;;;;;;;2080983;28;19905;-81
2023/10/17 08:03:40;;;;;;;;;;;;;;;;;;2076497;28;19996;-81
2023/10/17 08:05:16;;;;;;;;;;;;;;;;;;2069174;28;19905;-80
2023/10/17 08:06:36;;;;;;;;;;;;;;;;;;2073689;28;20231;-81
2023/10/17 08:08:08;;;;;;;;;;;;;;;;;;2078672;28;19909;-80
2023/10/17 08:09:36;;;;;;;;;;;;;;;;;;2074823;28;19917;-80
2023/10/17 08:10:54;;;;;;;;;;;;;;;;;;2072511;28;20370;-80
2023/10/17 08:12:21;;;;;;;;;;;;;;;;;;2078052;28;20360;-80
2023/10/17 08:13:40;;;;;;;;;;;;;;;;;;2074104;28;19910;-81
2023/10/17 08:15:03;;;;;;;;;;;;;;;;;;2077647;28;19913;-78
2023/10/17 08:16:29;;;;;;;;;;;;;;;;;;2074951;28;20003;-79
2023/10/17 08:17:49;;;;;;;;;;;;;;;;;;2073826;28;19913;-80
2023/10/17 08:19:14;;;;;;;;;;;;;;;;;;2079645;28;19979;-79
2023/10/17 08:22:18;;;;;;;;;;;;;;;;;;2081285;28;19917;-78
2023/10/17 08:23:40;;;;;;;;;;;;;;;;;;2074452;28;19909;-78
2023/10/17 08:25:00;;;;;;;;;;;;;;;;;;2076444;28;19913;-78
2023/10/17 08:26:21;;;;;;;;;;;;;;;;;;2079887;28;19909;-79
2023/10/17 08:29:00;;;;;;;;;;;;;;;;;;2077858;28;20278;-79
2023/10/17 08:30:23;;;;;;;;;;;;;;;;;;2072912;28;19905;-79
2023/10/17 08:31:45;;;;;;;;;;;;;;;;;;2074120;28;19905;-78
2023/10/17 08:34:24;;;;;;;;;;;;;;;;;;2079751;28;19905;-80
2023/10/17 08:35:51;;;;;;;;;;;;;;;;;;2074139;28;20291;-78
2023/10/17 08:37:10;;;;;;;;;;;;;;;;;;2079920;28;19913;-79
2023/10/17 08:38:33;;;;;;;;;;;;;;;;;;2079833;28;19913;-79
2023/10/17 08:39:52;;;;;;;;;;;;;;;;;;2080541;28;19905;-79
2023/10/17 08:41:11;;;;;;;;;;;;;;;;;;2081486;28;19905;-79
2023/10/17 08:42:30;;;;;;;;;;;;;;;;;;2081510;28;19909;-78
2023/10/17 08:43:49;;;;;;;;;;;;;;;;;;2080294;28;20354;-78
2023/10/17 08:45:15;;;;;;;;;;;;;;;;;;2075612;28;20370;-78
2023/10/17 08:46:34;;;;;;;;;;;;;;;;;;2075411;28;19905;-79
2023/10/17 08:47:54;;;;;;;;;;;;;;;;;;2076836;28;19908;-78
2023/10/17 08:49:12;;;;;;;;;;;;;;;;;;2080027;28;19906;-79
2023/10/17 08:50:37;;;;;;;;;;;;;;;;;;2073400;28;20151;-79
2023/10/17 08:51:56;;;;;;;;;;;;;;;;;;2080260;28;19905;-78
2023/10/17 08:54:37;;;;;;;;;;;;;;;;;;2078837;28;20015;-78
2023/10/17 08:55:56;;;;;;;;;;;;;;;;;;2080899;28;20201;-79
2023/10/17 08:57:15;;;;;;;;;;;;;;;;;;2075171;28;19906;-79
2023/10/17 08:58:34;;;;;;;;;;;;;;;;;;2077353;28;20405;-78
2023/10/17 09:01:17;;;;;;;;;;;;;;;;;;2086052;28;19905;-78
2023/10/17 09:02:48;;;;;;;;;;;;;;;;;;2079872;28;19905;-78
2023/10/17 09:04:08;;;;;;;;;;;;;;;;;;2085773;28;19909;-79
2023/10/17 09:05:27;;;;;;;;;;;;;;;;;;2089674;28;19932;-79
2023/10/17 09:06:49;;;;;;;;;;;;;;;;;;2086125;28;19909;-79
2023/10/17 09:08:11;;;;;;;;;;;;;;;;;;2090793;28;19913;-80
2023/10/17 09:09:32;;;;;;;;;;;;;;;;;;2089592;28;19905;-78
2023/10/17 09:10:51;;;;;;;;;;;;;;;;;;2083960;28;19909;-78
2023/10/17 09:12:21;;;;;;;;;;;;;;;;;;2083232;28;19917;-79
2023/10/17 09:15:16;;;;;;;;;;;;;;;;;;2084439;28;19904;-79
2023/10/17 09:16:39;;;;;;;;;;;;;;;;;;2078709;28;19906;-79
2023/10/17 09:17:59;;;;;;;;;;;;;;;;;;2078597;28;19949;-78
2023/10/17 09:19:20;;;;;;;;;;;;;;;;;;2078478;28;19909;-79
2023/10/17 09:20:49;;;;;;;;;;;;;;;;;;2076960;28;19909;-78
2023/10/17 09:22:08;;;;;;;;;;;;;;;;;;2072202;28;19917;-78
2023/10/17 09:23:30;;;;;;;;;;;;;;;;;;2072022;28;19905;-80
2023/10/17 09:24:49;;;;;;;;;;;;;;;;;;2081386;28;19921;-79
2023/10/17 09:26:10;;;;;;;;;;;;;;;;;;2071164;28;19905;-80
2023/10/17 09:27:29;;;;;;;;;;;;;;;;;;2074758;28;19952;-78
2023/10/17 09:28:48;;;;;;;;;;;;;;;;;;2073362;28;20359;-78
2023/10/17 09:30:07;;;;;;;;;;;;;;;;;;2077680;28;20323;-79
2023/10/17 09:31:26;;;;;;;;;;;;;;;;;;2081526;28;19910;-78
2023/10/17 09:32:48;;;;;;;;;;;;;;;;;;2075810;28;19913;-79
2023/10/17 09:34:07;;;;;;;;;;;;;;;;;;2075784;28;19906;-78
2023/10/17 09:35:26;;;;;;;;;;;;;;;;;;2078558;28;20011;-78
2023/10/17 09:36:48;;;;;;;;;;;;;;;;;;2081078;28;19983;-78
2023/10/17 09:38:07;;;;;;;;;;;;;;;;;;2075223;28;19987;-78
2023/10/17 09:39:29;;;;;;;;;;;;;;;;;;2073468;28;19945;-79
2023/10/17 09:40:49;;;;;;;;;;;;;;;;;;2071548;28;19906;-79
2023/10/17 09:42:08;;;;;;;;;;;;;;;;;;2072815;28;19908;-78
2023/10/17 09:43:26;;;;;;;;;;;;;;;;;;2080969;28;20302;-78
2023/10/17 09:44:45;;;;;;;;;;;;;;;;;;2076260;28;19917;-78
2023/10/17 09:46:04;;;;;;;;;;;;;;;;;;2078457;28;19913;-78
2023/10/17 09:47:23;;;;;;;;;;;;;;;;;;2076006;28;19936;-79
2023/10/17 09:48:42;;;;;;;;;;;;;;;;;;2080898;28;19909;-78
2023/10/17 09:50:03;;;;;;;;;;;;;;;;;;2080334;28;19905;-78
2023/10/17 09:51:22;;;;;;;;;;;;;;;;;;2075347;28;19980;-79
2023/10/17 09:52:41;;;;;;;;;;;;;;;;;;2078788;28;20011;-79
2023/10/17 09:54:00;;;;;;;;;;;;;;;;;;2074547;28;19910;-78
2023/10/17 09:55:18;;;;;;;;;;;;;;;;;;2071086;28;19905;-79
2023/10/17 09:56:37;;;;;;;;;;;;;;;;;;2074719;28;20003;-78
2023/10/17 09:57:56;;;;;;;;;;;;;;;;;;2070756;28;19905;-79
2023/10/17 09:59:16;;;;;;;;;;;;;;;;;;2078874;28;19913;-78
2023/10/17 10:00:36;;;;;;;;;;;;;;;;;;2079347;28;19905;-81
2023/10/17 10:01:56;;;;;;;;;;;;;;;;;;2082672;28;20359;-79
2023/10/17 10:03:17;;;;;;;;;;;;;;;;;;2080495;28;20282;-80
2023/10/17 10:04:36;;;;;;;;;;;;;;;;;;2071860;28;19905;-79
2023/10/17 10:05:55;;;;;;;;;;;;;;;;;;2077708;28;20008;-79
2023/10/17 10:07:13;;;;;;;;;;;;;;;;;;2081717;28;19905;-78
2023/10/17 10:08:32;;;;;;;;;;;;;;;;;;2076261;28;19905;-78
2023/10/17 10:09:51;;;;;;;;;;;;;;;;;;2079421;28;20036;-79
2023/10/17 10:11:11;;;;;;;;;;;;;;;;;;2078941;28;19913;-79
2023/10/17 10:12:30;;;;;;;;;;;;;;;;;;2080021;28;19913;-78
2023/10/17 10:13:49;;;;;;;;;;;;;;;;;;2082062;28;19913;-78
2023/10/17 10:15:08;;;;;;;;;;;;;;;;;;2075833;28;20327;-78
2023/10/17 10:16:27;;;;;;;;;;;;;;;;;;2075370;28;19905;-78
2023/10/17 10:17:46;;;;;;;;;;;;;;;;;;2077653;28;19913;-81
2023/10/17 10:19:06;;;;;;;;;;;;;;;;;;2075996;28;19941;-79
2023/10/17 10:20:25;;;;;;;;;;;;;;;;;;2079146;28;19913;-79
2023/10/17 10:21:44;;;;;;;;;;;;;;;;;;2075267;28;19914;-79
2023/10/17 10:23:03;;;;;;;;;;;;;;;;;;2074777;28;19905;-78
2023/10/17 10:24:21;;;;;;;;;;;;;;;;;;2079561;28;19909;-80
2023/10/17 10:25:40;;;;;;;;;;;;;;;;;;2076349;28;19948;-78
2023/10/17 10:26:59;;;;;;;;;;;;;;;;;;2072102;28;19918;-79
2023/10/17 10:28:19;;;;;;;;;;;;;;;;;;2067942;28;19917;-78
2023/10/17 10:29:38;;;;;;;;;;;;;;;;;;2071933;28;19905;-79
2023/10/17 10:30:57;;;;;;;;;;;;;;;;;;2077189;28;19905;-78
2023/10/17 10:32:16;;;;;;;;;;;;;;;;;;2074685;28;20344;-79
2023/10/17 10:33:35;;;;;;;;;;;;;;;;;;2068068;28;19905;-79
2023/10/17 10:34:54;;;;;;;;;;;;;;;;;;2070758;28;20001;-79
2023/10/17 10:36:13;;;;;;;;;;;;;;;;;;2081082;28;20024;-79
2023/10/17 10:37:32;;;;;;;;;;;;;;;;;;2076163;28;19909;-80
2023/10/17 10:38:53;;;;;;;;;;;;;;;;;;2080877;28;19904;-79
2023/10/17 10:40:32;;;;;;;;;;;;;;;;;;2082227;28;19905;-78
2023/10/17 10:41:51;;;;;;;;;;;;;;;;;;2080340;28;19952;-78
2023/10/17 10:43:11;;;;;;;;;;;;;;;;;;2081834;28;19913;-80
2023/10/17 10:44:30;;;;;;;;;;;;;;;;;;2076092;28;19909;-79
2023/10/17 10:45:50;;;;;;;;;;;;;;;;;;2069446;28;19905;-78
2023/10/17 10:47:09;;;;;;;;;;;;;;;;;;2073167;28;19929;-79
2023/10/17 10:48:28;;;;;;;;;;;;;;;;;;2079463;28;19913;-78
2023/10/17 10:49:49;;;;;;;;;;;;;;;;;;2081816;28;19992;-79
2023/10/17 10:51:08;;;;;;;;;;;;;;;;;;2074968;28;19909;-78
2023/10/17 10:52:26;;;;;;;;;;;;;;;;;;2078503;28;19995;-79
2023/10/17 10:53:54;;;;;;;;;;;;;;;;;;2073457;28;20266;-78
2023/10/17 10:55:14;;;;;;;;;;;;;;;;;;2080302;28;20270;-79
2023/10/17 10:56:33;;;;;;;;;;;;;;;;;;2081728;28;19909;-79
2023/10/17 10:57:52;;;;;;;;;;;;;;;;;;2075380;28;19905;-80
2023/10/17 10:59:11;;;;;;;;;;;;;;;;;;2077140;28;19913;-79
2023/10/17 11:00:30;;;;;;;;;;;;;;;;;;2080731;28;19909;-79
2023/10/17 11:01:50;;;;;;;;;;;;;;;;;;2075511;28;19918;-77
2023/10/17 11:03:08;;;;;;;;;;;;;;;;;;2075737;28;19905;-79
2023/10/17 11:04:29;;;;;;;;;;;;;;;;;;2078174;28;19991;-80
2023/10/17 11:05:48;;;;;;;;;;;;;;;;;;2073394;28;19905;-78